Invercargill, New Zealand
Current Conditions -  °F | °C
As of 10:30 AM on Saturday 20 Dec 2014 (Local Time) from NZCH Reporting Station
Clear Clear  
Wind Chill: 79°   Ceiling: Unl
Heat Index: 80°   Visibility: 6mi
Dew Point: 59°   Wind: 13mph
Humidity: 51%   Direction: 10°N
Pressure: 29.71"   Gusts: NA
Location:  46.41°S, 168.36°E
Report Text: NZCH 192230Z AUTO 01011KT 9999 NCD 26/15 Q1006 NOSIG
Loading
Personal Weather Stations






























Interactive Weather Map New forecast layout! Learn more

10-Day Weather Forecast

Advertisements
Track Severe Weather on mobile